Owensville, IN

13:25 CST le 20 décembre 2014 (GMT -0600)
Rural Princeton | Change Station
CLOSE
Current Station
Stations météorologiques personnelles
Location: Princeton, IN
Altitude: 436 ft
Stations météo à proximité

Alt. 436 ft 38.30 °N, 87.59 °W | Updated 1 minute ago

Couvert
Couvert
35.1 ° F
Paraît 35 ° F
N
3.0
Vent Variable Vent de ESE
Gusts 4.0 mph

Aujourd'hui
Haut(e) -- | Bas -- ° F
--% Risque de précip.
Hier
Haut(e) -- | Bas -- ° F
Precip. -- pouce
7:03 AM 4:33 PM
Lune descendante, 2% visible
Pression 30.30 pouce
Visibilité 10.0 Miles terrestres
Nuages Couvert 7000 ft
Refroidissement éolien 35 ° F
Point de rosée 29 ° F
Humidité 79%
Précipitations 0.00 pouce
Profondeur de la couche neigeuse Non disponible.
UV 1 sur 12
Pollen .30 sur 12
Qualité de l'air Non disponible.
Flu Activity Non disponible.
METAR KEVV 201854Z 08003KT 10SM OVC070 03/M03 A3028 RMK AO2 SLP258 T00281033

More Conditions Fewer Conditions

Pression 30.30 pouce
Visibilité 10.0 Miles terrestres
Nuages Couvert 7000 ft
Refroidissement éolien 35 ° F
Point de rosée 29 ° F
Humidité 79%
Précipitations 0.00 pouce
Profondeur de la couche neigeuse Non disponible.
UV 1 sur 12
Pollen .30 sur 12
Qualité de l'air Non disponible.
Flu Activity Non disponible.
METAR KEVV 201854Z 08003KT 10SM OVC070 03/M03 A3028 RMK AO2 SLP258 T00281033

More Conditions Fewer Conditions

10-Day Weather Forecast

Almanac

Astronomie

Dec. 20, 2014 Lever Coucher
Temps réel
Crépuscule civil
Crépuscule nautique
Crépuscule astronomique
Lune
Durée de lumière visible
Longueur du jour
Tomorrow will be .
, % of the Moon is Illuminated

Extrêmes aujourd'hui

State Highs State Lows

Community

WunderPhotos

Upload Photos

1,779,256 Photos téléchargées !

WunderBlogs® & News

Nearby

Qualité de l'air

  Qualité de l'air Indice de la qualité de l'air Polluant
Not available.

Épaisseur de neige

Station Depth Altitude

Activité sismique

Ville Distance Mag. Time & Date
Minimum magnitude displayed is 2.5.

Températures des eaux côtières

Lieu Température

Stations météo à proximité